createdAt,value
2022-10-01T00:02:20.000Z,95.0
2022-10-01T00:32:23.000Z,95.0
2022-10-01T01:02:27.000Z,95.0
2022-10-01T01:32:29.000Z,95.0
2022-10-01T02:02:39.426Z,95
2022-10-01T02:32:46.486Z,95
2022-10-01T03:02:51.472Z,95
2022-10-01T03:32:55.534Z,95
2022-10-01T04:02:59.387Z,95
2022-10-01T04:33:02.381Z,95
2022-10-01T05:03:06.322Z,96
2022-10-01T05:33:16.389Z,96
2022-10-01T06:03:18.281Z,96
2022-10-01T06:33:20.495Z,96
2022-10-01T07:03:25.597Z,97
2022-10-01T07:33:27.311Z,97
2022-10-01T08:04:24.000Z,97.0
2022-10-01T08:34:27.000Z,96.0
2022-10-01T09:04:33.000Z,94.0
2022-10-01T09:34:34.000Z,92.0
2022-10-01T10:04:37.000Z,92.0
2022-10-01T10:34:44.000Z,92.0
2022-10-01T11:04:46.000Z,92.0
2022-10-01T11:34:48.000Z,92.0
2022-10-01T12:04:57.000Z,92.0
2022-10-01T12:35:02.000Z,87.0
2022-10-01T13:05:12.000Z,85.0
2022-10-01T13:35:13.000Z,83.0
2022-10-01T14:05:24.000Z,83.0
2022-10-01T14:35:25.000Z,84.0
2022-10-01T15:05:35.000Z,83.0
2022-10-01T15:35:40.000Z,83.0
2022-10-01T16:05:50.000Z,82.0
2022-10-01T16:35:57.000Z,81.0
2022-10-01T17:05:58.000Z,84.0
2022-10-01T17:36:03.000Z,88.0
2022-10-01T18:06:06.000Z,91.0
2022-10-01T18:36:06.000Z,92.0
2022-10-01T19:06:09.000Z,88.0
2022-10-01T19:36:13.000Z,91.0
2022-10-01T20:06:15.000Z,92.0
2022-10-01T20:36:20.000Z,93.0
2022-10-01T21:06:25.000Z,89.0
2022-10-01T21:36:29.000Z,92.0
2022-10-01T22:06:31.226Z,93
2022-10-01T22:36:39.000Z,94.0
2022-10-01T23:06:42.410Z,94
2022-10-01T23:36:43.000Z,94.0
